Time;durP1;ratioP1;P1;durP2;ratioP2;P2;SDS_P1;SDS_P2;PMS_P1;PMS_P2;Temp;Humidity;BMP_temperature;BMP_pressure;BME280_temperature;BME280_humidity;BME280_pressure;Samples;Min_cycle;Max_cycle;Signal;HPM_P1;HPM_P2
2021/01/29 00:00:54;;;;;;;55.67;2.50;;;9.90;1.00;;;;;;5095802;28;20456;-68
2021/01/29 00:03:21;;;;;;;57.00;2.53;;;9.90;1.00;;;;;;5095775;28;20468;-68
2021/01/29 00:05:51;;;;;;;56.10;2.70;;;9.80;1.00;;;;;;5095425;28;20450;-68
2021/01/29 00:08:19;;;;;;;56.10;2.53;;;9.80;1.00;;;;;;5096043;28;20426;-68
2021/01/29 00:10:45;;;;;;;59.70;2.73;;;9.80;1.00;;;;;;5095682;28;20449;-68
2021/01/29 00:13:14;;;;;;;56.07;2.50;;;9.80;1.00;;;;;;5095737;28;20897;-68
2021/01/29 00:15:41;;;;;;;55.63;2.37;;;9.80;1.00;;;;;;5095751;28;20449;-68
2021/01/29 00:18:08;;;;;;;55.50;2.40;;;9.70;1.00;;;;;;5096057;28;20517;-68
2021/01/29 00:20:34;;;;;;;56.37;2.53;;;9.70;1.00;;;;;;5095834;28;20525;-68
2021/01/29 00:23:01;;;;;;;57.10;2.70;;;9.60;1.00;;;;;;5096566;28;20973;-68
2021/01/29 00:25:31;;;;;;;56.97;2.57;;;9.60;1.00;;;;;;5095850;28;20454;-68
2021/01/29 00:27:57;;;;;;;55.60;2.43;;;9.60;1.00;;;;;;5095524;28;20482;-68
2021/01/29 00:30:24;;;;;;;56.07;2.60;;;9.50;1.00;;;;;;5096100;28;20529;-68
2021/01/29 00:32:51;;;;;;;56.10;2.47;;;9.50;1.00;;;;;;5096059;28;20455;-68
2021/01/29 00:35:20;;;;;;;55.83;2.60;;;9.50;1.00;;;;;;5096060;28;20474;-68
2021/01/29 00:37:46;;;;;;;55.37;2.40;;;9.50;1.00;;;;;;5096089;28;20509;-68
2021/01/29 00:40:15;;;;;;;56.00;2.70;;;9.50;1.00;;;;;;5096840;28;20838;-68
2021/01/29 00:42:41;;;;;;;56.10;2.67;;;9.50;1.00;;;;;;5095616;28;20446;-68
2021/01/29 00:45:10;;;;;;;57.37;2.60;;;9.50;1.00;;;;;;5096529;28;20573;-68
2021/01/29 00:47:37;;;;;;;56.00;2.67;;;9.50;2.10;;;;;;5095799;28;20438;-68
2021/01/29 00:50:05;;;;;;;57.07;2.50;;;9.40;1.00;;;;;;5096028;28;20532;-68
2021/01/29 00:52:32;;;;;;;56.93;2.83;;;9.40;4.20;;;;;;5095414;28;20446;-67
2021/01/29 00:54:58;;;;;;;56.10;2.57;;;9.40;4.00;;;;;;5095723;28;21046;-68
2021/01/29 00:57:25;;;;;;;56.67;2.80;;;9.50;13.60;;;;;;5096261;28;21021;-67
2021/01/29 00:59:52;;;;;;;56.50;2.63;;;9.50;10.90;;;;;;5096256;28;20506;-68
2021/01/29 01:02:18;;;;;;;58.90;2.80;;;9.50;15.10;;;;;;5096373;28;20905;-68
2021/01/29 01:04:44;;;;;;;56.10;2.40;;;9.50;9.80;;;;;;5096403;28;20603;-67
2021/01/29 01:07:13;;;;;;;55.37;2.40;;;9.50;12.10;;;;;;5095690;28;20446;-67
2021/01/29 01:09:39;;;;;;;56.07;2.60;;;9.50;11.50;;;;;;5095639;28;20478;-70
2021/01/29 01:12:07;;;;;;;57.07;2.70;;;9.50;15.00;;;;;;5095462;28;20453;-68
2021/01/29 01:14:34;;;;;;;55.50;2.27;;;9.40;18.90;;;;;;5095984;28;20526;-68
2021/01/29 01:17:01;;;;;;;56.23;2.90;;;9.40;18.10;;;;;;5095203;28;20442;-68
2021/01/29 01:19:27;;;;;;;55.77;2.40;;;9.40;17.40;;;;;;5095080;28;20491;-68
2021/01/29 01:21:54;;;;;;;56.77;2.70;;;9.50;15.80;;;;;;5095483;28;20461;-68
2021/01/29 01:24:20;;;;;;;57.00;2.50;;;9.50;19.70;;;;;;5095849;28;20561;-68
2021/01/29 01:26:46;;;;;;;57.17;2.80;;;9.50;22.40;;;;;;5095671;28;20954;-67
2021/01/29 01:29:13;;;;;;;55.67;2.70;;;9.50;19.40;;;;;;5095625;28;20940;-67
2021/01/29 01:31:40;;;;;;;56.20;2.87;;;9.40;23.20;;;;;;5096312;28;20539;-68
2021/01/29 01:34:06;;;;;;;57.17;2.67;;;9.40;23.80;;;;;;5095735;28;20477;-67
2021/01/29 01:36:32;;;;;;;55.50;2.33;;;9.30;24.10;;;;;;5096535;28;20447;-68
2021/01/29 01:38:59;;;;;;;56.83;2.40;;;9.30;28.10;;;;;;5095336;28;20481;-67
2021/01/29 01:41:25;;;;;;;56.67;2.57;;;9.20;31.10;;;;;;5095655;28;20453;-67
2021/01/29 01:43:51;;;;;;;56.30;2.43;;;9.20;35.90;;;;;;5095726;28;20544;-68
2021/01/29 01:46:19;;;;;;;56.80;2.87;;;9.20;36.80;;;;;;5095586;28;20547;-67
2021/01/29 01:48:55;;;;;;;55.50;2.30;;;9.20;39.30;;;;;;5095665;28;20869;-67
2021/01/29 01:51:29;;;;;;;55.73;2.70;;;9.20;40.00;;;;;;5095622;28;20447;-67
2021/01/29 01:53:58;;;;;;;56.53;2.70;;;9.10;44.50;;;;;;5095652;28;20501;-67
2021/01/29 01:56:33;;;;;;;55.97;2.50;;;9.10;47.80;;;;;;5095728;28;20495;-67
2021/01/29 01:59:01;;;;;;;57.23;2.60;;;9.10;48.80;;;;;;5095693;28;20525;-67
2021/01/29 02:01:28;;;;;;;56.10;2.43;;;9.10;48.50;;;;;;5095465;28;20442;-67
2021/01/29 02:03:57;;;;;;;57.57;2.60;;;9.10;49.10;;;;;;5094996;28;20560;-67
2021/01/29 02:06:25;;;;;;;55.60;2.60;;;9.10;50.00;;;;;;5094998;28;20540;-67
2021/01/29 02:08:55;;;;;;;55.87;2.67;;;9.10;52.60;;;;;;5094683;28;20457;-67
2021/01/29 02:11:22;;;;;;;55.70;2.57;;;9.10;52.40;;;;;;5094548;28;20498;-67
2021/01/29 02:13:48;;;;;;;56.23;2.80;;;9.10;53.00;;;;;;5094436;28;20465;-67
2021/01/29 02:16:20;;;;;;;55.90;2.90;;;9.10;54.40;;;;;;5093529;28;20453;-67
2021/01/29 02:19:06;;;;;;;56.10;2.57;;;9.10;55.00;;;;;;5094460;28;20474;-67
2021/01/29 02:21:57;;;;;;;57.57;3.00;;;9.10;54.60;;;;;;5094403;28;20430;-67
2021/01/29 02:24:56;;;;;;;56.20;2.83;;;9.00;55.30;;;;;;5093634;28;20552;-67
2021/01/29 02:27:48;;;;;;;55.93;2.93;;;9.00;58.20;;;;;;5093423;28;20444;-67
2021/01/29 02:30:44;;;;;;;56.83;3.00;;;9.00;59.40;;;;;;5093437;28;20442;-67
2021/01/29 02:33:56;;;;;;;57.07;3.17;;;9.00;59.50;;;;;;5092662;28;20516;-67
2021/01/29 02:37:19;;;;;;;58.50;3.67;;;9.00;59.40;;;;;;5093563;28;20453;-67
2021/01/29 02:40:03;;;;;;;55.70;2.60;;;9.00;60.00;;;;;;4996924;28;20537;-67
2021/01/29 02:42:55;;;;;;;55.77;2.50;;;9.00;59.40;;;;;;5094037;28;20435;-67
2021/01/29 02:45:28;;;;;;;56.20;2.83;;;9.00;56.80;;;;;;5087655;28;20458;-67
2021/01/29 02:48:03;;;;;;;56.37;2.90;;;9.00;56.10;;;;;;5093220;28;20425;-67
2021/01/29 02:50:42;;;;;;;57.10;2.90;;;9.10;57.50;;;;;;5093039;28;20484;-67
2021/01/29 02:53:19;;;;;;;55.57;2.43;;;9.10;88.60;;;;;;5094035;28;20506;-67
2021/01/29 02:55:54;;;;;;;55.70;2.23;;;9.10;82.00;;;;;;5092792;28;21003;-67
2021/01/29 02:58:28;;;;;;;55.37;2.20;;;9.20;72.30;;;;;;5093574;28;20900;-67
2021/01/29 03:01:00;;;;;;;55.50;2.53;;;9.20;66.90;;;;;;5093534;28;20519;-68
2021/01/29 03:03:34;;;;;;;55.57;2.40;;;9.20;63.90;;;;;;5093163;28;20836;-68
2021/01/29 03:06:05;;;;;;;57.97;2.17;;;9.30;58.80;;;;;;5093453;28;20427;-67
2021/01/29 03:08:35;;;;;;;55.60;2.30;;;9.40;49.60;;;;;;5092987;28;21022;-67
2021/01/29 03:11:08;;;;;;;55.40;2.20;;;9.50;46.00;;;;;;5093678;28;20473;-68
2021/01/29 03:13:41;;;;;;;55.47;2.60;;;9.50;39.00;;;;;;5093414;28;20554;-68
2021/01/29 03:16:14;;;;;;;55.37;2.27;;;9.50;41.50;;;;;;5094517;28;20446;-67
2021/01/29 03:18:47;;;;;;;55.77;2.30;;;9.50;41.80;;;;;;5094505;28;20499;-68
2021/01/29 03:21:18;;;;;;;55.50;2.20;;;9.50;49.90;;;;;;5095102;28;20446;-68
2021/01/29 03:23:49;;;;;;;55.90;2.30;;;9.50;56.90;;;;;;5094488;28;21111;-68
2021/01/29 03:26:21;;;;;;;55.80;2.30;;;9.50;50.60;;;;;;5094753;28;20825;-68
2021/01/29 03:28:53;;;;;;;56.47;2.47;;;9.50;45.10;;;;;;5097340;28;20453;-68
2021/01/29 03:31:22;;;;;;;56.00;2.47;;;9.50;38.80;;;;;;5098402;28;20451;-68
2021/01/29 03:33:57;;;;;;;55.40;2.10;;;9.60;31.30;;;;;;5097708;28;20481;-68
2021/01/29 03:36:25;;;;;;;56.27;2.10;;;9.50;31.70;;;;;;5098284;28;20454;-68
2021/01/29 03:39:01;;;;;;;56.80;2.30;;;9.60;26.90;;;;;;5097958;28;20931;-68
2021/01/29 03:41:30;;;;;;;55.57;2.13;;;9.60;34.20;;;;;;5097644;28;21022;-68
2021/01/29 03:44:04;;;;;;;55.30;2.10;;;9.60;25.10;;;;;;5097688;28;20553;-68
2021/01/29 03:46:39;;;;;;;56.40;2.30;;;9.60;28.40;;;;;;5098183;28;20450;-68
2021/01/29 03:49:16;;;;;;;56.17;2.20;;;9.60;23.30;;;;;;5098145;28;20518;-68
2021/01/29 03:51:59;;;;;;;55.97;2.40;;;9.60;23.00;;;;;;5098117;28;20449;-68
2021/01/29 03:54:31;;;;;;;56.40;2.23;;;9.60;23.40;;;;;;5097659;28;20465;-68
2021/01/29 03:57:04;;;;;;;56.00;2.30;;;9.60;23.50;;;;;;5098128;28;20536;-68
2021/01/29 03:59:37;;;;;;;55.70;2.40;;;9.60;23.50;;;;;;5097214;28;21004;-68
2021/01/29 04:02:13;;;;;;;56.57;2.50;;;9.60;21.40;;;;;;5096987;28;20453;-68
2021/01/29 04:04:48;;;;;;;55.40;2.07;;;9.60;22.30;;;;;;5097434;28;20472;-68
2021/01/29 04:07:20;;;;;;;56.20;2.37;;;9.60;19.40;;;;;;5098185;28;20872;-68
2021/01/29 04:09:52;;;;;;;56.13;2.40;;;9.60;14.80;;;;;;5097921;28;20442;-68
2021/01/29 04:12:26;;;;;;;55.47;2.37;;;9.50;17.00;;;;;;5097852;28;20453;-68
2021/01/29 04:14:58;;;;;;;55.23;2.17;;;9.50;18.20;;;;;;5097806;28;20473;-68
2021/01/29 04:17:31;;;;;;;55.37;2.20;;;9.50;16.10;;;;;;5097690;28;20435;-68
2021/01/29 04:20:02;;;;;;;56.60;2.30;;;9.40;22.50;;;;;;5098245;28;20461;-68
2021/01/29 04:22:33;;;;;;;55.50;2.20;;;9.40;24.80;;;;;;5097885;28;20952;-68
2021/01/29 04:25:05;;;;;;;55.57;2.17;;;9.40;30.10;;;;;;5096887;28;20470;-68
2021/01/29 04:27:36;;;;;;;55.50;2.23;;;9.30;26.00;;;;;;5097245;28;20450;-67
2021/01/29 04:30:07;;;;;;;55.63;2.20;;;9.20;29.50;;;;;;5097136;28;20477;-68
2021/01/29 04:32:38;;;;;;;55.80;2.37;;;9.30;26.50;;;;;;5097030;28;20453;-68
2021/01/29 04:35:07;;;;;;;55.80;2.30;;;9.20;30.90;;;;;;5097008;28;20473;-68
2021/01/29 04:37:38;;;;;;;55.70;2.33;;;9.20;32.40;;;;;;5097091;28;20829;-68
2021/01/29 04:40:16;;;;;;;56.00;2.40;;;9.20;31.10;;;;;;5096769;28;20445;-68
2021/01/29 04:42:59;;;;;;;55.30;2.17;;;9.10;30.10;;;;;;5097157;28;20446;-68
2021/01/29 04:45:41;;;;;;;55.70;2.33;;;9.10;30.90;;;;;;5097228;28;20438;-68
2021/01/29 04:48:15;;;;;;;55.47;2.30;;;9.10;28.60;;;;;;5097503;28;20861;-68
2021/01/29 04:50:50;;;;;;;56.63;2.30;;;9.10;27.40;;;;;;5096602;28;20454;-68
2021/01/29 04:53:43;;;;;;;55.20;2.13;;;9.10;28.50;;;;;;5096887;28;20976;-68
2021/01/29 04:56:35;;;;;;;55.60;2.10;;;9.10;24.40;;;;;;5096614;28;20453;-68
2021/01/29 04:59:23;;;;;;;55.57;2.30;;;9.10;26.60;;;;;;5096453;28;20490;-68
2021/01/29 05:02:18;;;;;;;57.07;2.23;;;9.10;28.60;;;;;;5095968;28;20450;-68
2021/01/29 05:05:02;;;;;;;57.10;2.20;;;9.10;29.70;;;;;;5070195;28;20485;-68
2021/01/29 05:07:49;;;;;;;55.60;2.47;;;9.10;28.80;;;;;;5096272;28;20441;-68
2021/01/29 05:10:49;;;;;;;55.57;2.10;;;9.10;28.00;;;;;;5096365;28;20460;-68
2021/01/29 05:13:32;;;;;;;55.77;2.33;;;9.10;27.90;;;;;;5095559;28;20990;-68
2021/01/29 05:16:39;;;;;;;55.20;2.10;;;9.00;29.70;;;;;;5094017;28;20649;-68
2021/01/29 05:19:24;;;;;;;55.27;2.13;;;9.00;30.40;;;;;;5095871;28;20506;-68
2021/01/29 05:22:32;;;;;;;55.80;2.10;;;9.00;30.30;;;;;;5085854;28;20832;-68
2021/01/29 05:25:45;;;;;;;55.40;2.30;;;9.00;33.90;;;;;;5095896;28;20977;-68
2021/01/29 05:28:37;;;;;;;56.43;2.07;;;9.10;40.70;;;;;;5096509;28;20441;-68
2021/01/29 05:31:26;;;;;;;55.87;2.20;;;9.20;28.10;;;;;;5098682;28;20450;-68
2021/01/29 05:34:12;;;;;;;55.50;1.90;;;9.20;28.00;;;;;;5092926;28;20572;-68
2021/01/29 05:37:03;;;;;;;55.87;2.20;;;9.20;27.80;;;;;;5096845;28;20461;-67
2021/01/29 05:39:41;;;;;;;55.30;2.20;;;9.20;34.70;;;;;;5098124;28;20570;-68
2021/01/29 05:42:37;;;;;;;55.57;2.60;;;9.10;35.50;;;;;;5097379;28;20468;-67
2021/01/29 05:45:22;;;;;;;56.57;2.73;;;9.00;38.30;;;;;;5096416;28;20556;-67
2021/01/29 05:48:31;;;;;;;56.80;2.67;;;9.00;47.70;;;;;;5097761;28;20521;-68
2021/01/29 05:51:14;;;;;;;55.70;2.30;;;8.90;52.10;;;;;;5096833;28;20453;-68
2021/01/29 05:54:15;;;;;;;55.30;2.10;;;8.90;57.20;;;;;;5097826;28;20466;-68
2021/01/29 05:57:02;;;;;;;56.07;2.17;;;8.90;59.20;;;;;;5097720;28;20955;-67
2021/01/29 05:59:46;;;;;;;55.27;2.20;;;8.80;61.80;;;;;;5098325;28;20540;-68
2021/01/29 06:02:48;;;;;;;55.20;2.13;;;8.80;60.60;;;;;;5098089;28;20449;-68
2021/01/29 06:05:32;;;;;;;55.47;2.27;;;8.70;60.00;;;;;;5098128;28;20472;-68
2021/01/29 06:08:24;;;;;;;57.00;2.30;;;8.80;56.50;;;;;;5097664;28;20449;-68
2021/01/29 06:11:06;;;;;;;56.27;2.20;;;8.70;56.60;;;;;;5097572;28;20453;-67
2021/01/29 06:13:53;;;;;;;55.27;2.10;;;8.70;55.40;;;;;;5097152;28;20556;-68
2021/01/29 06:16:59;;;;;;;56.17;1.90;;;8.80;58.90;;;;;;5097211;28;20453;-68
2021/01/29 06:20:08;;;;;;;55.30;2.13;;;8.90;52.10;;;;;;5090972;28;20490;-68
2021/01/29 06:23:00;;;;;;;55.70;2.30;;;9.00;42.70;;;;;;5096956;28;20556;-68
2021/01/29 06:25:42;;;;;;;55.43;2.30;;;9.00;45.50;;;;;;5097663;28;20453;-68
2021/01/29 06:28:49;;;;;;;56.30;2.70;;;8.90;48.90;;;;;;5099295;28;20438;-68
2021/01/29 06:31:43;;;;;;;55.97;2.40;;;8.90;49.00;;;;;;5098264;28;20449;-69
2021/01/29 06:34:33;;;;;;;56.00;2.30;;;8.80;48.80;;;;;;5095642;28;20472;-69
2021/01/29 06:37:11;;;;;;;55.57;2.30;;;8.80;50.50;;;;;;5096152;28;20782;-69
2021/01/29 06:40:02;;;;;;;55.87;2.13;;;8.80;55.50;;;;;;5095316;28;20483;-70
2021/01/29 06:42:48;;;;;;;58.47;2.47;;;8.70;55.90;;;;;;5094496;28;20453;-70
2021/01/29 06:45:25;;;;;;;55.60;2.40;;;8.70;59.20;;;;;;5095059;28;20607;-70
2021/01/29 06:48:31;;;;;;;56.07;2.50;;;8.70;63.40;;;;;;5096047;28;20435;-70
2021/01/29 06:51:24;;;;;;;56.60;2.40;;;8.70;64.10;;;;;;5084885;28;20457;-70
2021/01/29 06:54:11;;;;;;;55.60;2.40;;;8.70;65.10;;;;;;5082063;28;20477;-70
2021/01/29 06:57:10;;;;;;;55.57;2.40;;;8.70;65.70;;;;;;5094295;28;20433;-69
2021/01/29 06:59:59;;;;;;;55.17;2.13;;;8.70;65.70;;;;;;5032755;28;20533;-69
2021/01/29 07:02:49;;;;;;;55.90;2.40;;;8.70;65.40;;;;;;5080965;28;20814;-69
2021/01/29 07:05:29;;;;;;;55.20;2.20;;;8.70;64.20;;;;;;5099508;28;20541;-70
2021/01/29 07:08:07;;;;;;;56.90;2.50;;;8.70;63.70;;;;;;5100080;28;20531;-70
2021/01/29 07:11:08;;;;;;;55.77;2.53;;;8.70;61.50;;;;;;5099181;28;20532;-69
2021/01/29 07:13:49;;;;;;;56.73;2.13;;;8.70;59.60;;;;;;5071458;28;20480;-69
2021/01/29 07:16:39;;;;;;;55.37;2.03;;;8.70;53.00;;;;;;5098046;28;20448;-69
2021/01/29 07:19:22;;;;;;;55.37;2.00;;;8.70;43.60;;;;;;5095612;28;20534;-69
2021/01/29 07:22:29;;;;;;;55.27;1.97;;;8.80;36.40;;;;;;5100621;28;20429;-69
2021/01/29 07:25:05;;;;;;;55.23;2.00;;;8.80;35.00;;;;;;5099973;28;20468;-69
2021/01/29 07:27:44;;;;;;;58.03;2.27;;;8.80;27.50;;;;;;5099554;28;20445;-69
2021/01/29 07:30:35;;;;;;;56.40;2.50;;;8.80;27.70;;;;;;5100794;28;20447;-68
2021/01/29 07:33:12;;;;;;;55.70;2.20;;;8.80;26.70;;;;;;5100275;28;20893;-68
2021/01/29 07:35:49;;;;;;;55.50;2.20;;;8.80;21.20;;;;;;5100195;28;20522;-68
2021/01/29 07:38:57;;;;;;;56.07;2.20;;;8.90;16.90;;;;;;5099352;28;20483;-68
2021/01/29 07:41:37;;;;;;;55.50;2.10;;;8.90;8.50;;;;;;5100495;28;20528;-69
2021/01/29 07:44:20;;;;;;;55.40;2.00;;;9.00;2.80;;;;;;5098075;28;20508;-68
2021/01/29 07:46:59;;;;;;;55.50;2.20;;;9.10;1.00;;;;;;5098329;28;20523;-69
2021/01/29 07:49:37;;;;;;;55.43;2.10;;;9.10;1.00;;;;;;5099077;28;20446;-68
2021/01/29 07:52:15;;;;;;;58.17;1.90;;;9.10;1.00;;;;;;5098513;28;20517;-68
2021/01/29 07:55:08;;;;;;;55.73;2.30;;;9.10;1.00;;;;;;5098269;28;20926;-68
2021/01/29 07:58:07;;;;;;;55.90;2.30;;;9.10;1.00;;;;;;5098236;28;20445;-68
2021/01/29 08:00:43;;;;;;;55.80;2.00;;;9.10;1.00;;;;;;5097463;28;20969;-69
2021/01/29 08:03:38;;;;;;;57.70;2.07;;;9.10;1.00;;;;;;5096824;28;20438;-68
2021/01/29 08:06:10;;;;;;;55.27;2.30;;;9.10;1.00;;;;;;5097010;28;20468;-68
2021/01/29 08:08:44;;;;;;;55.40;2.10;;;9.10;1.00;;;;;;5097380;28;20469;-68
2021/01/29 08:11:10;;;;;;;55.60;2.00;;;9.20;1.00;;;;;;5096417;28;20513;-69
2021/01/29 08:13:59;;;;;;;58.83;2.07;;;9.30;1.00;;;;;;5095835;28;21007;-69
2021/01/29 08:16:52;;;;;;;55.50;2.47;;;9.40;1.00;;;;;;5095167;28;20875;-69
2021/01/29 08:19:26;;;;;;;55.37;2.00;;;9.40;1.00;;;;;;5096156;28;20485;-69
2021/01/29 08:22:13;;;;;;;56.37;2.30;;;9.50;1.00;;;;;;5095889;28;20514;-69
2021/01/29 08:24:50;;;;;;;55.77;1.87;;;9.60;1.00;;;;;;5095637;28;20465;-69
2021/01/29 08:27:47;;;;;;;56.07;2.10;;;9.60;1.00;;;;;;5095585;28;20482;-69
2021/01/29 08:30:46;;;;;;;55.70;2.20;;;9.60;1.00;;;;;;5070158;28;20452;-69
2021/01/29 08:33:46;;;;;;;55.17;2.10;;;9.60;1.00;;;;;;5057513;28;20466;-69
2021/01/29 08:36:31;;;;;;;55.90;2.33;;;9.60;1.00;;;;;;5094929;28;20870;-69
2021/01/29 08:39:06;;;;;;;55.47;2.30;;;9.70;1.00;;;;;;5095124;28;20482;-70
2021/01/29 08:41:41;;;;;;;55.57;2.10;;;9.70;1.00;;;;;;5094731;28;20446;-69
2021/01/29 08:44:16;;;;;;;55.43;2.13;;;9.70;1.00;;;;;;5093153;28;20813;-69
2021/01/29 08:47:03;;;;;;;55.30;2.07;;;9.90;1.00;;;;;;5094362;28;20441;-69
2021/01/29 08:50:03;;;;;;;55.47;2.10;;;10.00;1.00;;;;;;5079083;28;21003;-69
2021/01/29 08:53:11;;;;;;;55.40;2.17;;;10.00;1.00;;;;;;5094357;28;20525;-69
2021/01/29 08:55:52;;;;;;;56.40;2.30;;;9.90;1.00;;;;;;5036614;28;20444;-69
2021/01/29 08:58:24;;;;;;;55.90;2.30;;;9.90;1.00;;;;;;5093528;28;20496;-69
2021/01/29 09:01:02;;;;;;;55.27;2.10;;;9.80;1.00;;;;;;5094135;28;20864;-69
2021/01/29 09:03:36;;;;;;;55.30;2.40;;;9.70;1.00;;;;;;5093814;28;20469;-69
2021/01/29 09:06:13;;;;;;;56.43;2.40;;;9.70;1.00;;;;;;5093988;28;20437;-69
2021/01/29 09:08:41;;;;;;;57.40;2.60;;;9.60;1.00;;;;;;5094355;28;20449;-69
2021/01/29 09:11:19;;;;;;;55.70;2.30;;;9.60;1.00;;;;;;5093636;28;20449;-69
2021/01/29 09:13:54;;;;;;;55.30;2.10;;;9.70;1.00;;;;;;5093250;28;20977;-69
2021/01/29 09:16:26;;;;;;;56.57;2.60;;;9.70;1.00;;;;;;5093659;28;20449;-69
2021/01/29 09:18:59;;;;;;;56.23;2.30;;;9.90;1.00;;;;;;5091888;28;20489;-69
2021/01/29 09:21:32;;;;;;;57.87;2.47;;;10.00;1.00;;;;;;5093135;28;20442;-68
2021/01/29 09:24:09;;;;;;;56.97;2.53;;;10.00;1.00;;;;;;5093245;28;20466;-69
2021/01/29 09:26:40;;;;;;;56.40;2.60;;;10.20;1.00;;;;;;5094293;28;20446;-68
2021/01/29 09:29:15;;;;;;;55.70;2.10;;;10.20;1.00;;;;;;5093518;28;20453;-71
2021/01/29 09:31:43;;;;;;;58.33;2.33;;;10.30;1.00;;;;;;5093493;28;20442;-69
2021/01/29 09:34:17;;;;;;;57.20;2.17;;;10.50;1.00;;;;;;5093468;28;20474;-68
2021/01/29 09:36:49;;;;;;;59.70;2.40;;;10.70;1.00;;;;;;5093788;28;20473;-69
2021/01/29 09:39:24;;;;;;;57.17;2.50;;;10.70;1.00;;;;;;5094313;28;20489;-69
2021/01/29 09:41:58;;;;;;;55.97;2.20;;;10.70;1.00;;;;;;5094335;28;20458;-69
2021/01/29 09:44:30;;;;;;;59.20;2.10;;;10.80;1.00;;;;;;5094016;28;20466;-69
2021/01/29 09:46:59;;;;;;;55.80;2.17;;;10.70;1.00;;;;;;5094585;28;20449;-69
2021/01/29 09:49:28;;;;;;;58.47;2.70;;;10.80;1.00;;;;;;5093272;28;20496;-68
2021/01/29 09:52:12;;;;;;;56.07;2.20;;;10.90;1.00;;;;;;5093412;28;20523;-68
2021/01/29 09:54:49;;;;;;;56.27;2.40;;;11.00;1.00;;;;;;5093021;28;20999;-69
2021/01/29 09:57:21;;;;;;;58.27;2.47;;;10.90;1.00;;;;;;5093441;28;20438;-69
2021/01/29 09:59:55;;;;;;;58.33;2.50;;;11.10;1.00;;;;;;5093217;28;20964;-69
2021/01/29 10:02:36;;;;;;;58.00;2.70;;;11.20;1.00;;;;;;5093095;28;20997;-69
2021/01/29 10:05:18;;;;;;;57.87;2.87;;;11.30;1.00;;;;;;5092443;28;20503;-69
2021/01/29 10:07:56;;;;;;;57.87;2.60;;;11.30;1.00;;;;;;5092743;28;20924;-69
2021/01/29 10:10:31;;;;;;;56.10;2.10;;;11.50;1.00;;;;;;5092499;28;20442;-69
2021/01/29 10:13:03;;;;;;;61.57;2.40;;;11.70;1.00;;;;;;5092296;28;20534;-69
2021/01/29 10:15:36;;;;;;;58.53;3.43;;;12.40;1.00;;;;;;5092097;28;20938;-67
2021/01/29 10:18:06;;;;;;;57.50;2.60;;;12.90;1.00;;;;;;5092572;28;20446;-68
2021/01/29 10:20:36;;;;;;;57.63;2.73;;;13.50;1.00;;;;;;5092030;28;20447;-68
2021/01/29 10:23:24;;;;;;;61.30;2.70;;;13.50;1.00;;;;;;5092585;28;20534;-69
2021/01/29 10:26:10;;;;;;;57.70;3.00;;;12.90;1.00;;;;;;5092509;28;20476;-68
2021/01/29 10:29:02;;;;;;;58.20;2.70;;;12.70;1.00;;;;;;5093153;28;20507;-69
2021/01/29 10:31:37;;;;;;;57.70;3.00;;;13.00;1.00;;;;;;5092170;28;20454;-69
2021/01/29 10:34:30;;;;;;;58.47;2.87;;;13.40;1.00;;;;;;5091744;28;20565;-69
2021/01/29 10:37:05;;;;;;;58.57;3.17;;;14.20;1.00;;;;;;5091962;28;20530;-69
2021/01/29 10:39:52;;;;;;;58.43;2.60;;;14.90;1.00;;;;;;5091839;28;20479;-68
2021/01/29 10:42:26;;;;;;;60.90;3.10;;;15.20;1.00;;;;;;5091697;28;20448;-69
2021/01/29 10:44:53;;;;;;;59.30;3.27;;;15.30;1.00;;;;;;5092474;28;20515;-68
2021/01/29 10:47:26;;;;;;;58.87;3.10;;;15.50;1.00;;;;;;5092010;28;20461;-68
2021/01/29 10:49:57;;;;;;;57.27;2.70;;;16.00;1.00;;;;;;5092298;28;20995;-68
2021/01/29 10:52:39;;;;;;;59.37;3.10;;;16.20;1.00;;;;;;5090978;28;20992;-68
2021/01/29 10:55:17;;;;;;;60.40;3.07;;;16.30;1.00;;;;;;5092345;28;20830;-68
2021/01/29 10:57:53;;;;;;;57.77;2.90;;;16.20;1.00;;;;;;5092414;28;20817;-69
2021/01/29 11:00:22;;;;;;;59.73;3.10;;;16.40;1.00;;;;;;5092235;28;20489;-68
2021/01/29 11:02:52;;;;;;;58.13;2.80;;;15.50;1.00;;;;;;5091900;28;20956;-68
2021/01/29 11:05:24;;;;;;;59.17;3.00;;;14.80;1.00;;;;;;5093140;28;20478;-68
2021/01/29 11:07:53;;;;;;;59.13;3.43;;;14.40;1.00;;;;;;5092981;28;20694;-68
2021/01/29 11:10:31;;;;;;;58.33;3.20;;;13.80;1.00;;;;;;5092436;28;20955;-68
2021/01/29 11:13:03;;;;;;;64.80;3.40;;;13.30;1.00;;;;;;5092204;28;20461;-68
2021/01/29 11:15:37;;;;;;;59.80;2.90;;;13.00;1.00;;;;;;5092416;28;20977;-68
2021/01/29 11:18:14;;;;;;;60.50;3.57;;;13.50;1.00;;;;;;5093006;28;20993;-68
2021/01/29 11:20:42;;;;;;;57.17;2.97;;;14.00;1.00;;;;;;5092140;28;20854;-68
2021/01/29 11:23:27;;;;;;;57.63;2.93;;;14.00;1.00;;;;;;5076167;28;20616;-69
2021/01/29 11:26:12;;;;;;;59.10;3.37;;;13.60;1.00;;;;;;5071345;28;20457;-68
2021/01/29 11:28:55;;;;;;;59.40;3.07;;;13.60;1.00;;;;;;5071951;28;20960;-68
2021/01/29 11:31:37;;;;;;;58.00;3.13;;;13.70;1.00;;;;;;5072447;28;20477;-68
2021/01/29 11:34:05;;;;;;;57.47;2.67;;;13.30;1.00;;;;;;5071818;28;20474;-68
2021/01/29 11:36:37;;;;;;;56.50;2.80;;;12.80;1.00;;;;;;5071956;28;20484;-68
2021/01/29 11:39:12;;;;;;;58.27;2.90;;;12.40;1.00;;;;;;5072051;28;20860;-68
2021/01/29 11:41:50;;;;;;;58.20;2.70;;;12.30;1.00;;;;;;5072685;28;20441;-68
2021/01/29 11:44:26;;;;;;;58.30;3.70;;;12.30;1.00;;;;;;5072344;28;20466;-68
2021/01/29 11:47:01;;;;;;;61.57;3.20;;;12.20;1.00;;;;;;5071979;28;20448;-68
2021/01/29 11:49:32;;;;;;;59.83;3.20;;;12.10;1.00;;;;;;5073750;28;20438;-68
2021/01/29 11:52:07;;;;;;;58.03;2.80;;;12.10;1.00;;;;;;5075382;28;20922;-68
2021/01/29 11:54:41;;;;;;;58.20;2.77;;;12.70;1.00;;;;;;5092956;28;20477;-68
2021/01/29 11:57:11;;;;;;;57.83;2.50;;;14.00;1.00;;;;;;5095838;28;20995;-68
2021/01/29 11:59:52;;;;;;;58.13;2.70;;;14.80;1.00;;;;;;5096191;28;20490;-68
2021/01/29 12:02:37;;;;;;;58.83;2.77;;;15.30;1.00;;;;;;5095979;28;20501;-68
2021/01/29 12:05:17;;;;;;;56.70;2.53;;;15.10;1.00;;;;;;5096382;28;20462;-68
2021/01/29 12:07:48;;;;;;;58.27;3.17;;;14.30;1.00;;;;;;5096051;28;20439;-68
2021/01/29 12:10:22;;;;;;;57.50;2.50;;;13.40;1.00;;;;;;5095951;28;20525;-68
2021/01/29 12:12:54;;;;;;;56.80;2.43;;;12.90;1.00;;;;;;5095730;28;20430;-68
2021/01/29 12:15:28;;;;;;;57.77;2.70;;;12.50;1.00;;;;;;5095487;28;20451;-68
2021/01/29 12:17:58;;;;;;;60.80;3.00;;;12.40;1.00;;;;;;5096002;28;20447;-69
2021/01/29 12:20:27;;;;;;;57.07;2.70;;;12.60;1.00;;;;;;5094662;28;20993;-69
2021/01/29 12:23:07;;;;;;;58.97;2.50;;;13.10;1.00;;;;;;5095398;28;20458;-69
2021/01/29 12:25:48;;;;;;;58.77;2.37;;;13.30;1.00;;;;;;5094961;28;20446;-68
2021/01/29 12:28:24;;;;;;;59.20;2.47;;;13.30;1.00;;;;;;5096495;28;20984;-68
2021/01/29 12:31:04;;;;;;;58.00;2.40;;;12.90;1.00;;;;;;5095773;28;20495;-69
2021/01/29 12:33:42;;;;;;;57.50;3.23;;;12.60;1.00;;;;;;5095989;28;20474;-68
2021/01/29 12:36:11;;;;;;;57.37;2.80;;;12.30;1.00;;;;;;5095915;28;20974;-69
2021/01/29 12:38:41;;;;;;;57.67;2.30;;;12.10;1.00;;;;;;5095434;28;20478;-68
2021/01/29 12:41:17;;;;;;;59.57;3.00;;;12.10;1.00;;;;;;5095789;28;20442;-68
2021/01/29 12:44:00;;;;;;;63.33;3.37;;;12.10;1.00;;;;;;5096047;28;20470;-69
2021/01/29 12:46:32;;;;;;;61.27;3.23;;;12.00;1.00;;;;;;5095919;28;20449;-68
2021/01/29 12:49:03;;;;;;;56.50;2.83;;;11.80;1.00;;;;;;5094867;28;20464;-69
2021/01/29 12:51:35;;;;;;;59.10;2.83;;;11.70;1.00;;;;;;5094555;28;20472;-69
2021/01/29 12:54:18;;;;;;;58.30;2.90;;;11.50;1.00;;;;;;5093807;28;21001;-68
2021/01/29 12:56:56;;;;;;;58.63;2.77;;;11.30;1.00;;;;;;5078376;28;20453;-69
2021/01/29 12:59:37;;;;;;;61.07;3.43;;;11.10;1.00;;;;;;5094244;28;20473;-71
2021/01/29 13:02:18;;;;;;;56.73;3.00;;;11.00;1.00;;;;;;5093302;28;20958;-68
2021/01/29 13:04:48;;;;;;;57.57;2.40;;;11.00;1.00;;;;;;5094182;28;20470;-68
2021/01/29 13:07:17;;;;;;;60.33;3.03;;;10.90;1.00;;;;;;5094000;28;20566;-68
2021/01/29 13:10:10;;;;;;;57.60;2.70;;;10.90;1.00;;;;;;5094137;28;20464;-69
2021/01/29 13:12:51;;;;;;;57.87;2.60;;;11.00;1.00;;;;;;5093638;28;20533;-69
2021/01/29 13:15:41;;;;;;;58.90;2.90;;;11.00;1.00;;;;;;5093701;28;20571;-69
2021/01/29 13:18:14;;;;;;;58.03;2.40;;;11.10;1.00;;;;;;5093908;28;20451;-69
2021/01/29 13:20:46;;;;;;;56.70;2.40;;;11.10;1.00;;;;;;5093879;28;20500;-69
2021/01/29 13:23:40;;;;;;;56.67;2.70;;;11.10;1.00;;;;;;5093293;28;20446;-69
2021/01/29 13:26:19;;;;;;;59.50;2.53;;;11.00;1.00;;;;;;5092270;28;20446;-69
2021/01/29 13:29:08;;;;;;;58.77;2.60;;;11.20;1.00;;;;;;5093842;28;20469;-69
2021/01/29 13:32:03;;;;;;;57.43;2.40;;;11.60;1.00;;;;;;5084402;28;20980;-69
2021/01/29 13:35:00;;;;;;;56.07;2.50;;;12.00;1.00;;;;;;5093117;28;20510;-69
2021/01/29 13:37:28;;;;;;;56.73;2.33;;;12.00;1.00;;;;;;5092812;28;20795;-69
2021/01/29 13:40:06;;;;;;;57.60;2.40;;;11.80;1.00;;;;;;5092936;28;20478;-69
2021/01/29 13:42:35;;;;;;;59.40;2.20;;;11.60;1.00;;;;;;5092932;28;20732;-69
2021/01/29 13:45:09;;;;;;;57.70;2.50;;;11.50;1.00;;;;;;5092678;28;20471;-68